Time;durP1;ratioP1;P1;durP2;ratioP2;P2;SDS_P1;SDS_P2;PMS_P1;PMS_P2;Temp;Humidity;BMP_temperature;BMP_pressure;BME280_temperature;BME280_humidity;BME280_pressure;Samples;Min_cycle;Max_cycle;Signal;HPM_P1;HPM_P2
2023/05/16 00:01:56;;;;;;;27.33;18.73;;;15.80;1.00;;;;;;4975730;28;20454;-72
2023/05/16 00:04:22;;;;;;;27.93;19.20;;;15.80;1.00;;;;;;4977701;28;20195;-72
2023/05/16 00:06:48;;;;;;;26.97;18.73;;;15.80;1.00;;;;;;4985452;28;20205;-72
2023/05/16 00:09:13;;;;;;;27.20;18.63;;;15.70;1.00;;;;;;4992654;28;20510;-73
2023/05/16 00:11:39;;;;;;;29.30;20.27;;;15.60;1.00;;;;;;4997421;28;20269;-70
2023/05/16 00:14:04;;;;;;;24.70;18.77;;;16.80;1.00;;;;;;4986553;28;20642;-73
2023/05/16 00:16:30;;;;;;;25.97;18.47;;;15.50;1.00;;;;;;4991416;28;20686;-72
2023/05/16 00:18:59;;;;;;;27.43;19.43;;;15.50;1.00;;;;;;4987998;28;20586;-72
2023/05/16 00:21:25;;;;;;;25.83;17.80;;;15.50;1.00;;;;;;4978759;28;20212;-73
2023/05/16 00:23:51;;;;;;;26.37;18.60;;;15.40;1.00;;;;;;4972640;28;20423;-73
2023/05/16 00:26:17;;;;;;;22.30;17.17;;;15.40;1.00;;;;;;4988545;28;20245;-72
2023/05/16 00:28:43;;;;;;;24.57;17.90;;;15.40;1.00;;;;;;4987738;28;20872;-72
2023/05/16 00:31:08;;;;;;;28.67;17.80;;;15.40;1.00;;;;;;4983441;28;20191;-72
2023/05/16 00:33:34;;;;;;;25.33;18.83;;;15.30;1.00;;;;;;4984458;28;20210;-73
2023/05/16 00:35:59;;;;;;;31.80;18.73;;;15.20;1.00;;;;;;4980735;28;20204;-72
2023/05/16 00:38:25;;;;;;;32.90;19.43;;;15.20;1.00;;;;;;4983462;28;20298;-72
2023/05/16 00:40:51;;;;;;;29.40;20.70;;;15.20;1.00;;;;;;4985579;28;20715;-72
2023/05/16 00:43:16;;;;;;;34.00;21.67;;;15.10;1.00;;;;;;4980125;28;20200;-72
2023/05/16 00:45:42;;;;;;;27.53;20.30;;;15.10;1.00;;;;;;4980091;28;20180;-72
2023/05/16 00:48:08;;;;;;;35.30;22.13;;;15.00;1.00;;;;;;4971832;28;20208;-72
2023/05/16 00:50:34;;;;;;;34.00;22.97;;;15.00;1.00;;;;;;4973868;28;20196;-72
2023/05/16 00:52:59;;;;;;;35.87;22.83;;;15.00;1.00;;;;;;4984416;28;20473;-73
2023/05/16 00:55:25;;;;;;;36.53;23.93;;;15.00;1.00;;;;;;4979471;28;20450;-73
2023/05/16 00:57:51;;;;;;;40.60;25.77;;;14.90;1.00;;;;;;4983094;28;20222;-72
2023/05/16 01:00:18;;;;;;;47.20;28.23;;;15.00;1.00;;;;;;4983785;28;20219;-72
2023/05/16 01:02:45;;;;;;;44.70;27.13;;;14.90;1.00;;;;;;4984798;28;20504;-71
2023/05/16 01:05:10;;;;;;;42.13;27.83;;;14.90;1.00;;;;;;4979748;28;20430;-72
2023/05/16 01:07:36;;;;;;;41.83;28.20;;;14.90;1.00;;;;;;4981433;28;20459;-73
2023/05/16 01:10:03;;;;;;;43.20;28.03;;;14.90;1.00;;;;;;4996702;28;20194;-72
2023/05/16 01:12:42;;;;;;;43.17;28.17;;;14.80;1.00;;;;;;4984171;28;20198;-73
2023/05/16 01:15:21;;;;;;;44.50;28.27;;;14.80;1.00;;;;;;4987570;28;20431;-73
2023/05/16 01:18:02;;;;;;;49.63;29.17;;;14.80;1.00;;;;;;4974336;28;20868;-72
2023/05/16 01:20:44;;;;;;;45.67;29.03;;;14.80;1.00;;;;;;4985526;28;20476;-73
2023/05/16 01:23:40;;;;;;;48.70;29.07;;;14.80;1.00;;;;;;4989611;28;20434;-72
2023/05/16 01:26:18;;;;;;;45.13;29.10;;;14.80;1.00;;;;;;4974815;28;20457;-73
2023/05/16 01:28:48;;;;;;;48.17;29.83;;;14.80;1.00;;;;;;4973932;28;20483;-72
2023/05/16 01:31:15;;;;;;;46.40;29.77;;;14.80;1.00;;;;;;4985554;28;21114;-73
2023/05/16 01:33:40;;;;;;;50.07;29.83;;;14.80;1.00;;;;;;4980683;28;20745;-73
2023/05/16 01:36:14;;;;;;;52.20;30.70;;;14.80;1.00;;;;;;4983397;28;20446;-73
2023/05/16 01:39:15;;;;;;;48.33;29.10;;;14.80;1.00;;;;;;4974587;28;20310;-73
2023/05/16 01:42:07;;;;;;;50.27;31.07;;;14.80;1.00;;;;;;4977119;28;20521;-73
2023/05/16 01:45:05;;;;;;;50.60;31.13;;;14.80;1.00;;;;;;4980810;28;20510;-73
2023/05/16 01:47:34;;;;;;;48.90;30.67;;;14.70;1.00;;;;;;4984523;28;20466;-72
2023/05/16 01:50:09;;;;;;;52.67;32.17;;;14.70;1.00;;;;;;4978383;28;20454;-72
2023/05/16 01:52:46;;;;;;;47.93;30.90;;;14.70;1.00;;;;;;4977375;28;20528;-72
2023/05/16 01:55:30;;;;;;;55.97;31.27;;;14.80;1.00;;;;;;4979662;28;20531;-72
2023/05/16 01:57:58;;;;;;;50.50;30.37;;;14.70;1.00;;;;;;4981129;28;20972;-73
2023/05/16 02:00:24;;;;;;;48.47;30.83;;;14.70;1.00;;;;;;4983514;28;20472;-73
2023/05/16 02:02:49;;;;;;;56.17;30.57;;;14.70;1.00;;;;;;4976506;28;20442;-73
2023/05/16 02:05:15;;;;;;;52.77;30.63;;;14.80;1.00;;;;;;4984711;28;20194;-73
2023/05/16 02:07:40;;;;;;;49.13;29.53;;;14.80;1.00;;;;;;4979437;28;20293;-72
2023/05/16 02:10:06;;;;;;;46.73;29.20;;;14.80;1.00;;;;;;4976634;28;20187;-72
2023/05/16 02:12:32;;;;;;;48.27;29.60;;;14.80;1.00;;;;;;4975613;28;20187;-72
2023/05/16 02:14:57;;;;;;;49.50;29.13;;;14.80;1.00;;;;;;4977192;28;20474;-73
2023/05/16 02:17:23;;;;;;;47.47;29.37;;;14.70;1.00;;;;;;4981618;28;20207;-73
2023/05/16 02:19:48;;;;;;;46.47;28.43;;;14.70;1.00;;;;;;4977720;28;20270;-73
2023/05/16 02:22:14;;;;;;;44.10;28.90;;;14.70;1.00;;;;;;4981676;28;20187;-71
2023/05/16 02:24:40;;;;;;;49.47;30.60;;;14.70;1.00;;;;;;4977294;28;20608;-72
2023/05/16 02:27:05;;;;;;;49.83;30.07;;;14.60;1.00;;;;;;4974531;28;20218;-73
2023/05/16 02:29:31;;;;;;;45.73;29.10;;;14.60;1.00;;;;;;4983007;28;20221;-73
2023/05/16 02:31:56;;;;;;;47.37;29.50;;;14.60;1.00;;;;;;4985846;28;20179;-72
2023/05/16 02:34:21;;;;;;;49.17;28.40;;;14.50;1.00;;;;;;4979541;28;20709;-73
2023/05/16 02:36:47;;;;;;;51.90;29.90;;;14.50;1.00;;;;;;4978563;28;20262;-72
2023/05/16 02:39:12;;;;;;;45.77;28.10;;;14.50;1.00;;;;;;4979636;28;20230;-72
2023/05/16 02:41:38;;;;;;;45.90;29.20;;;14.60;1.00;;;;;;4983455;28;20305;-72
2023/05/16 02:44:04;;;;;;;50.07;28.13;;;14.50;1.00;;;;;;4979152;28;20191;-72
2023/05/16 02:46:32;;;;;;;48.23;27.33;;;14.60;1.00;;;;;;4976408;28;20190;-73
2023/05/16 02:48:57;;;;;;;44.67;29.27;;;14.50;1.00;;;;;;4986155;28;20176;-73
2023/05/16 02:51:25;;;;;;;45.33;29.03;;;14.50;1.00;;;;;;4985384;28;20493;-73
2023/05/16 02:53:51;;;;;;;44.80;28.53;;;14.50;1.00;;;;;;4976120;28;20191;-71
2023/05/16 02:56:17;;;;;;;46.40;28.47;;;14.50;1.00;;;;;;4977580;28;20499;-73
2023/05/16 02:58:48;;;;;;;45.03;28.57;;;14.60;1.00;;;;;;4978473;28;20474;-73
2023/05/16 03:01:14;;;;;;;50.07;27.40;;;14.50;1.00;;;;;;4981541;28;20234;-73
2023/05/16 03:03:40;;;;;;;40.20;27.00;;;14.50;1.00;;;;;;4978621;28;20460;-72
2023/05/16 03:06:06;;;;;;;38.10;25.60;;;14.40;1.00;;;;;;4985827;28;20980;-72
2023/05/16 03:08:32;;;;;;;46.03;25.90;;;14.40;1.00;;;;;;4987905;28;20514;-73
2023/05/16 03:10:57;;;;;;;39.80;24.40;;;14.40;1.00;;;;;;4971504;28;20205;-72
2023/05/16 03:13:23;;;;;;;37.77;24.73;;;14.40;1.00;;;;;;4982875;28;20441;-73
2023/05/16 03:15:49;;;;;;;37.53;23.90;;;14.30;1.00;;;;;;4984970;28;20666;-72
2023/05/16 03:18:14;;;;;;;34.43;22.33;;;14.30;1.00;;;;;;4969802;28;20302;-72
2023/05/16 03:20:40;;;;;;;39.67;22.43;;;14.30;1.00;;;;;;4990700;28;20290;-73
2023/05/16 03:23:07;;;;;;;34.77;21.50;;;14.30;1.00;;;;;;4987938;28;20287;-72
2023/05/16 03:25:33;;;;;;;32.80;21.60;;;14.30;1.00;;;;;;4983099;28;20187;-72
2023/05/16 03:27:59;;;;;;;33.77;19.90;;;14.20;1.00;;;;;;4987099;28;20489;-72
2023/05/16 03:30:25;;;;;;;32.20;21.40;;;14.20;1.00;;;;;;4976071;28;20470;-72
2023/05/16 03:32:51;;;;;;;31.93;20.00;;;14.10;1.00;;;;;;4974781;28;20589;-72
2023/05/16 03:35:16;;;;;;;31.30;19.53;;;14.20;1.00;;;;;;4977165;28;20251;-72
2023/05/16 03:37:42;;;;;;;32.43;21.87;;;14.20;1.00;;;;;;4981233;28;21015;-73
2023/05/16 03:40:08;;;;;;;31.93;19.20;;;14.10;1.00;;;;;;4986443;28;20677;-73
2023/05/16 03:42:34;;;;;;;32.23;19.63;;;14.20;1.00;;;;;;4986601;28;20257;-72
2023/05/16 03:44:59;;;;;;;31.30;20.37;;;14.20;1.00;;;;;;4988554;28;20430;-73
2023/05/16 03:47:25;;;;;;;29.40;19.20;;;14.10;1.00;;;;;;4985664;28;20285;-73
2023/05/16 03:49:52;;;;;;;36.40;20.40;;;14.10;1.00;;;;;;4985726;28;20270;-73
2023/05/16 03:52:17;;;;;;;31.63;20.37;;;14.10;1.00;;;;;;4978015;28;20270;-73
2023/05/16 03:54:43;;;;;;;30.40;19.70;;;14.10;1.00;;;;;;4983233;28;20598;-71
2023/05/16 03:57:08;;;;;;;34.00;18.83;;;14.10;1.00;;;;;;4983288;28;20521;-72
2023/05/16 03:59:34;;;;;;;29.70;19.07;;;14.00;1.00;;;;;;4980080;28;20187;-72
2023/05/16 04:02:00;;;;;;;29.23;18.57;;;14.00;1.00;;;;;;4987460;28;20669;-71
2023/05/16 04:04:25;;;;;;;31.13;18.07;;;14.00;1.00;;;;;;4985978;28;20195;-72
2023/05/16 04:06:51;;;;;;;28.00;18.10;;;14.00;1.00;;;;;;4980902;28;20215;-72
2023/05/16 04:09:16;;;;;;;26.23;17.93;;;14.00;1.00;;;;;;4984246;28;20183;-73
2023/05/16 04:11:42;;;;;;;28.63;17.13;;;14.10;1.00;;;;;;4979128;28;20195;-72
2023/05/16 04:14:07;;;;;;;34.23;17.53;;;14.00;1.00;;;;;;4986941;28;20277;-72
2023/05/16 04:16:33;;;;;;;29.70;17.87;;;14.00;1.00;;;;;;4988361;28;20211;-72
2023/05/16 04:18:58;;;;;;;32.67;18.07;;;13.90;1.00;;;;;;4984818;28;20542;-72
2023/05/16 04:21:24;;;;;;;30.87;17.80;;;14.00;1.00;;;;;;4973966;28;20208;-73
2023/05/16 04:23:49;;;;;;;27.60;17.13;;;14.00;1.00;;;;;;4987405;28;20180;-72
2023/05/16 04:26:15;;;;;;;25.27;16.93;;;14.00;1.00;;;;;;4984794;28;20254;-73
2023/05/16 04:28:40;;;;;;;24.73;15.93;;;14.00;1.00;;;;;;4981962;28;20203;-72
2023/05/16 04:31:07;;;;;;;27.83;15.87;;;14.80;1.00;;;;;;4979620;28;20557;-71
2023/05/16 04:33:32;;;;;;;28.73;16.10;;;14.00;1.00;;;;;;4981926;28;20184;-72
2023/05/16 04:35:59;;;;;;;28.77;16.47;;;14.00;1.00;;;;;;4984901;28;20521;-72
2023/05/16 04:38:24;;;;;;;30.03;17.03;;;14.00;1.00;;;;;;4986863;28;20206;-72
2023/05/16 04:40:50;;;;;;;27.70;17.00;;;14.00;1.00;;;;;;4985014;28;20458;-72
2023/05/16 04:43:16;;;;;;;26.87;16.70;;;14.00;1.00;;;;;;4978259;28;20263;-73
2023/05/16 04:45:42;;;;;;;26.20;16.10;;;14.00;1.00;;;;;;4988605;28;20190;-73
2023/05/16 04:48:07;;;;;;;24.70;16.53;;;13.90;1.00;;;;;;4984568;28;20799;-72
2023/05/16 04:50:33;;;;;;;25.07;16.67;;;13.90;1.00;;;;;;4989383;28;20191;-72
2023/05/16 04:52:58;;;;;;;30.90;17.33;;;13.90;1.00;;;;;;4979704;28;20219;-72
2023/05/16 04:55:24;;;;;;;26.13;16.50;;;13.90;1.00;;;;;;4985062;28;20187;-73
2023/05/16 04:57:50;;;;;;;24.00;15.93;;;14.00;1.00;;;;;;4978125;28;20590;-72
2023/05/16 05:00:16;;;;;;;29.70;17.20;;;;;;;;;;4987538;28;20206;-74
2023/05/16 05:02:42;;;;;;;31.83;16.23;;;14.00;1.00;;;;;;4983181;28;20238;-72
2023/05/16 05:05:08;;;;;;;29.27;16.67;;;14.00;1.00;;;;;;4974279;28;20534;-72
2023/05/16 05:07:33;;;;;;;28.90;16.90;;;14.20;1.00;;;;;;4984200;28;20549;-72
2023/05/16 05:09:59;;;;;;;24.30;15.60;;;14.20;1.00;;;;;;4978576;28;20191;-72
2023/05/16 05:12:26;;;;;;;30.10;16.00;;;14.30;1.00;;;;;;4978233;28;20188;-72
2023/05/16 05:14:52;;;;;;;25.83;16.30;;;14.40;1.00;;;;;;4977785;28;20578;-73
2023/05/16 05:17:18;;;;;;;25.90;16.03;;;14.40;1.00;;;;;;4983971;28;20459;-72
2023/05/16 05:19:43;;;;;;;25.30;15.43;;;16.10;1.00;;;;;;4986845;28;20190;-72
2023/05/16 05:22:09;;;;;;;29.60;16.97;;;14.40;1.00;;;;;;4977746;28;20430;-72
2023/05/16 05:24:35;;;;;;;27.00;16.00;;;14.50;1.00;;;;;;4975912;28;20198;-72
2023/05/16 05:27:00;;;;;;;26.87;16.90;;;14.40;1.00;;;;;;4978233;28;20558;-71
2023/05/16 05:29:26;;;;;;;27.27;16.30;;;14.50;1.00;;;;;;4985407;28;20561;-73
2023/05/16 05:31:51;;;;;;;27.87;16.67;;;14.50;1.00;;;;;;4972301;28;20572;-72
2023/05/16 05:34:17;;;;;;;24.50;15.43;;;14.40;1.00;;;;;;4974585;28;20191;-72
2023/05/16 05:36:43;;;;;;;26.30;16.23;;;14.40;1.00;;;;;;4984126;28;20222;-73
2023/05/16 05:39:08;;;;;;;28.60;16.17;;;14.40;1.00;;;;;;4981153;28;20685;-72
2023/05/16 05:41:34;;;;;;;25.60;15.73;;;14.40;1.00;;;;;;4975575;28;20466;-73
2023/05/16 05:44:00;;;;;;;25.63;15.77;;;14.40;1.00;;;;;;4983581;28;20198;-72
2023/05/16 05:46:25;;;;;;;28.23;16.53;;;14.40;1.00;;;;;;4978391;28;20187;-72
2023/05/16 05:48:51;;;;;;;25.90;14.73;;;14.50;1.00;;;;;;4978176;28;20207;-72
2023/05/16 05:51:17;;;;;;;22.80;15.27;;;14.60;1.00;;;;;;4978511;28;20218;-72
2023/05/16 05:53:43;;;;;;;24.30;15.13;;;14.60;1.00;;;;;;4983867;28;20194;-73
2023/05/16 05:56:08;;;;;;;23.70;14.90;;;14.70;1.00;;;;;;4976553;28;20451;-72
2023/05/16 05:58:34;;;;;;;24.10;15.50;;;14.90;1.00;;;;;;4981775;28;20208;-73
2023/05/16 06:00:59;;;;;;;27.57;15.27;;;15.10;1.00;;;;;;4974284;28;20586;-73
2023/05/16 06:03:25;;;;;;;25.10;14.70;;;15.20;1.00;;;;;;4972045;28;20179;-71
2023/05/16 06:05:50;;;;;;;26.33;15.30;;;15.50;1.00;;;;;;4980969;28;20577;-71
2023/05/16 06:08:16;;;;;;;24.00;13.67;;;15.30;1.00;;;;;;4974333;28;20222;-73
2023/05/16 06:10:42;;;;;;;23.07;13.80;;;15.40;1.00;;;;;;4987823;28;20340;-73
2023/05/16 06:13:07;;;;;;;20.77;12.93;;;15.40;1.00;;;;;;4974153;28;20805;-73
2023/05/16 06:15:33;;;;;;;18.67;12.30;;;15.50;1.00;;;;;;4975732;28;20249;-71
2023/05/16 06:17:58;;;;;;;21.47;11.57;;;15.50;1.00;;;;;;4976186;28;20820;-70
2023/05/16 06:20:24;;;;;;;21.40;11.97;;;15.50;1.00;;;;;;4976167;28;20289;-70
2023/05/16 06:22:49;;;;;;;18.77;11.70;;;15.50;1.00;;;;;;4980646;28;20209;-70
2023/05/16 06:25:15;;;;;;;23.90;12.07;;;15.60;1.00;;;;;;4985709;28;20190;-70
2023/05/16 06:27:40;;;;;;;19.03;11.10;;;15.80;1.00;;;;;;4983538;28;20726;-72
2023/05/16 06:30:07;;;;;;;19.23;11.13;;;16.00;1.00;;;;;;4987180;28;20195;-71
2023/05/16 06:32:33;;;;;;;20.10;11.40;;;16.00;1.00;;;;;;4978293;28;20270;-71
2023/05/16 06:34:58;;;;;;;13.67;10.03;;;15.90;1.00;;;;;;4978945;28;20463;-70
2023/05/16 06:37:25;;;;;;;15.33;9.70;;;16.10;1.00;;;;;;4980953;28;20199;-72
2023/05/16 06:39:50;;;;;;;13.10;8.60;;;16.20;1.00;;;;;;4985047;28;20183;-72
2023/05/16 06:42:16;;;;;;;15.90;8.93;;;16.20;1.00;;;;;;4975212;28;20454;-73
2023/05/16 06:44:42;;;;;;;17.53;9.40;;;16.10;1.00;;;;;;4986526;28;20188;-73
2023/05/16 06:47:07;;;;;;;12.97;8.60;;;16.00;1.00;;;;;;4984840;28;20209;-72
2023/05/16 06:49:33;;;;;;;15.53;8.80;;;16.00;1.00;;;;;;4983106;28;20650;-71
2023/05/16 06:51:58;;;;;;;10.10;7.70;;;16.20;1.00;;;;;;4984250;28;20186;-71
2023/05/16 06:54:24;;;;;;;12.70;8.03;;;16.00;1.00;;;;;;4985709;28;20183;-72
2023/05/16 06:56:50;;;;;;;10.77;7.77;;;16.10;1.00;;;;;;4982232;28;20211;-71
2023/05/16 06:59:15;;;;;;;21.37;8.40;;;16.10;1.00;;;;;;4984141;28;20187;-73
2023/05/16 07:01:41;;;;;;;14.90;7.63;;;16.00;1.00;;;;;;4983752;28;20214;-73
2023/05/16 07:04:06;;;;;;;13.77;7.23;;;15.90;1.00;;;;;;4980596;28;20665;-72
2023/05/16 07:06:32;;;;;;;10.33;6.70;;;16.10;1.00;;;;;;4981813;28;20218;-73
2023/05/16 07:08:58;;;;;;;10.67;7.00;;;16.10;1.00;;;;;;4977892;28;20176;-71
2023/05/16 07:11:23;;;;;;;10.20;6.57;;;16.00;1.00;;;;;;4986592;28;20187;-73
2023/05/16 07:13:49;;;;;;;9.53;7.00;;;15.90;1.00;;;;;;4982773;28;20187;-70
2023/05/16 07:16:14;;;;;;;9.37;6.70;;;16.10;1.00;;;;;;4982668;28;20191;-72
2023/05/16 07:18:40;;;;;;;8.80;6.43;;;16.20;1.00;;;;;;4984830;28;20302;-72
2023/05/16 07:21:05;;;;;;;7.83;5.90;;;16.20;1.00;;;;;;4983496;28;20203;-70
2023/05/16 07:23:31;;;;;;;8.17;6.13;;;16.10;1.00;;;;;;4986106;28;20215;-72
2023/05/16 07:25:57;;;;;;;7.57;5.23;;;16.00;1.00;;;;;;4978543;28;20270;-72
2023/05/16 07:28:22;;;;;;;6.30;4.83;;;16.00;1.00;;;;;;4986227;28;20276;-72
2023/05/16 07:30:48;;;;;;;8.13;5.20;;;16.00;1.00;;;;;;4982945;28;20435;-73
2023/05/16 07:33:14;;;;;;;6.87;4.30;;;15.60;1.00;;;;;;4984703;28;20210;-72
2023/05/16 07:35:39;;;;;;;6.23;4.30;;;15.90;1.00;;;;;;4991590;28;20261;-73
2023/05/16 07:38:05;;;;;;;6.63;4.70;;;16.00;1.00;;;;;;4987530;28;20344;-71
2023/05/16 07:40:30;;;;;;;10.90;4.47;;;16.00;1.00;;;;;;4990560;28;20215;-73
2023/05/16 07:42:56;;;;;;;5.27;4.20;;;16.10;1.00;;;;;;4983288;28;20267;-73
2023/05/16 07:45:21;;;;;;;4.57;4.00;;;16.20;1.00;;;;;;4986916;28;20585;-72
2023/05/16 07:47:47;;;;;;;4.17;3.77;;;16.20;1.00;;;;;;4987004;28;20214;-73
2023/05/16 07:50:12;;;;;;;5.40;3.90;;;16.00;1.00;;;;;;4987634;28;20192;-72
2023/05/16 07:52:38;;;;;;;5.77;3.97;;;16.00;1.00;;;;;;4984321;28;20771;-72
2023/05/16 07:55:04;;;;;;;6.90;4.00;;;16.00;1.00;;;;;;4983380;28;20190;-72
2023/05/16 07:57:29;;;;;;;6.60;4.13;;;16.00;1.00;;;;;;4985184;28;20230;-71
2023/05/16 07:59:55;;;;;;;6.70;3.97;;;16.00;1.00;;;;;;4978019;28;20194;-72
2023/05/16 08:02:24;;;;;;;5.60;3.40;;;15.90;1.00;;;;;;4978941;28;20701;-72
2023/05/16 08:04:49;;;;;;;4.07;2.93;;;15.90;1.00;;;;;;4985300;28;20202;-71
2023/05/16 08:07:15;;;;;;;3.60;2.77;;;15.90;1.00;;;;;;4983281;28;20497;-72
2023/05/16 08:09:41;;;;;;;2.67;2.33;;;15.90;1.00;;;;;;4987628;28;20294;-72
2023/05/16 08:12:07;;;;;;;10.43;2.70;;;15.70;1.00;;;;;;4984768;28;20576;-72
2023/05/16 08:14:33;;;;;;;3.63;2.70;;;15.70;1.00;;;;;;4989873;28;20626;-71
2023/05/16 08:16:59;;;;;;;6.10;2.83;;;15.60;1.00;;;;;;4988883;28;20502;-72
2023/05/16 08:19:24;;;;;;;3.20;2.90;;;15.60;1.00;;;;;;4978033;28;20182;-72
2023/05/16 08:21:50;;;;;;;4.37;3.17;;;15.50;1.00;;;;;;4981480;28;20470;-71
2023/05/16 08:24:16;;;;;;;4.07;2.70;;;15.40;1.00;;;;;;4972561;28;20190;-72
2023/05/16 08:26:42;;;;;;;4.50;3.00;;;15.40;1.00;;;;;;4969356;28;20218;-72
2023/05/16 08:29:07;;;;;;;3.43;3.13;;;15.40;1.00;;;;;;4988384;28;20270;-72
2023/05/16 08:31:33;;;;;;;3.93;2.40;;;15.30;1.00;;;;;;4982781;28;20709;-71
2023/05/16 08:34:00;;;;;;;3.23;2.33;;;15.20;1.00;;;;;;4977499;28;20241;-72
2023/05/16 08:36:26;;;;;;;3.70;2.70;;;15.10;1.00;;;;;;4978863;28;20186;-73
2023/05/16 08:38:51;;;;;;;4.77;3.47;;;15.10;1.00;;;;;;4983296;28;20975;-72
2023/05/16 08:41:17;;;;;;;3.03;2.37;;;15.20;1.00;;;;;;4982677;28;20466;-72
2023/05/16 08:43:43;;;;;;;2.20;2.00;;;15.20;1.00;;;;;;4983269;28;20211;-72
2023/05/16 08:46:09;;;;;;;2.47;1.77;;;15.20;1.00;;;;;;4980928;28;20188;-72
2023/05/16 08:48:36;;;;;;;2.70;1.90;;;15.30;1.00;;;;;;4984894;28;20196;-72
2023/05/16 08:51:03;;;;;;;2.00;1.43;;;15.30;1.00;;;;;;4981113;28;20187;-71
2023/05/16 08:53:39;;;;;;;4.90;1.30;;;15.30;1.00;;;;;;4978552;28;21101;-73
2023/05/16 08:56:07;;;;;;;1.67;1.50;;;15.30;1.00;;;;;;4985711;28;20442;-72
2023/05/16 08:58:33;;;;;;;3.33;1.80;;;15.40;1.00;;;;;;4988840;28;20480;-72
2023/05/16 09:00:58;;;;;;;3.53;1.53;;;15.70;1.00;;;;;;4983861;28;20470;-72
2023/05/16 09:03:24;;;;;;;2.13;1.73;;;16.10;1.00;;;;;;4980758;28;20653;-72
2023/05/16 09:05:51;;;;;;;2.57;1.57;;;16.50;1.00;;;;;;4986223;28;20550;-71
2023/05/16 09:08:17;;;;;;;1.40;1.30;;;16.90;1.00;;;;;;4992442;28;20268;-72
2023/05/16 09:10:42;;;;;;;1.40;1.30;;;17.20;1.00;;;;;;4988354;28;20542;-72
2023/05/16 09:13:08;;;;;;;2.00;1.80;;;17.40;1.00;;;;;;4982713;28;20765;-71
2023/05/16 09:15:33;;;;;;;7.90;1.67;;;17.50;1.00;;;;;;4983441;28;20187;-71
2023/05/16 09:18:03;;;;;;;2.23;1.90;;;18.00;1.00;;;;;;4987803;28;20203;-71
2023/05/16 09:20:30;;;;;;;4.63;2.23;;;18.10;1.00;;;;;;4984387;28;20559;-72
2023/05/16 09:22:58;;;;;;;3.77;1.80;;;18.60;1.00;;;;;;4980178;28;20445;-72
2023/05/16 09:25:29;;;;;;;2.30;1.70;;;19.00;1.00;;;;;;4985303;28;20952;-72
2023/05/16 09:27:56;;;;;;;3.20;1.90;;;19.00;1.00;;;;;;4983932;28;20458;-71
2023/05/16 09:30:27;;;;;;;2.77;1.70;;;19.10;1.00;;;;;;4982153;28;20445;-73
2023/05/16 09:32:53;;;;;;;2.90;2.10;;;19.30;1.00;;;;;;4980089;28;20453;-71
2023/05/16 09:35:20;;;;;;;2.53;1.73;;;19.20;1.00;;;;;;4983112;28;20941;-74
2023/05/16 09:37:50;;;;;;;3.07;1.90;;;19.30;1.00;;;;;;4990072;28;20488;-73
2023/05/16 09:40:19;;;;;;;5.37;3.00;;;19.40;1.00;;;;;;4983151;28;20466;-73
2023/05/16 09:42:45;;;;;;;4.40;1.83;;;19.50;1.00;;;;;;4975663;28;20474;-72
2023/05/16 09:45:12;;;;;;;7.57;3.93;;;19.70;1.00;;;;;;4978293;28;20525;-72
2023/05/16 09:47:45;;;;;;;3.97;2.50;;;20.20;1.00;;;;;;4984549;28;20290;-73
2023/05/16 09:50:14;;;;;;;6.13;3.20;;;20.60;1.00;;;;;;4988961;28;20445;-71
2023/05/16 09:52:40;;;;;;;3.33;2.10;;;20.50;1.00;;;;;;4981398;28;20523;-72
2023/05/16 09:55:07;;;;;;;2.87;2.13;;;20.10;1.00;;;;;;4986444;28;20460;-71
2023/05/16 09:57:37;;;;;;;3.90;2.00;;;19.90;1.00;;;;;;4982269;28;20459;-72
2023/05/16 10:00:07;;;;;;;8.43;3.00;;;20.60;1.00;;;;;;4982391;28;20857;-72
2023/05/16 10:02:33;;;;;;;4.17;2.33;;;21.60;1.00;;;;;;4981007;28;20462;-72
2023/05/16 10:04:59;;;;;;;5.23;2.33;;;22.00;1.00;;;;;;4984124;28;21953;-72
2023/05/16 10:07:25;;;;;;;3.93;1.77;;;23.60;1.00;;;;;;4983846;28;20581;-72
2023/05/16 10:09:53;;;;;;;2.60;1.67;;;24.10;1.00;;;;;;4978845;28;20183;-71
2023/05/16 10:12:21;;;;;;;3.90;2.10;;;24.30;1.00;;;;;;4985493;28;20250;-72
2023/05/16 10:14:49;;;;;;;3.20;1.80;;;24.70;1.00;;;;;;4977135;28;20465;-73
2023/05/16 10:17:15;;;;;;;3.37;1.80;;;24.00;1.00;;;;;;4983807;28;20462;-71
2023/05/16 10:19:41;;;;;;;3.30;1.90;;;22.50;1.00;;;;;;4980672;28;20537;-71
2023/05/16 10:22:09;;;;;;;3.27;2.30;;;21.30;1.00;;;;;;4977589;28;20477;-70
2023/05/16 10:24:43;;;;;;;3.83;1.70;;;20.40;1.00;;;;;;4983036;28;20813;-70
2023/05/16 10:27:08;;;;;;;3.30;1.97;;;19.40;1.00;;;;;;4975659;28;20470;-71
2023/05/16 10:29:36;;;;;;;3.70;1.97;;;19.20;1.00;;;;;;4982768;28;20441;-70
2023/05/16 10:32:02;;;;;;;2.83;1.50;;;18.20;1.00;;;;;;4977933;28;20191;-70
2023/05/16 10:34:28;;;;;;;4.70;2.10;;;17.80;1.00;;;;;;4983860;28;20453;-73
2023/05/16 10:36:54;;;;;;;4.27;2.57;;;17.40;1.00;;;;;;4979963;28;20817;-72
2023/05/16 10:39:20;;;;;;;6.30;2.37;;;17.20;1.00;;;;;;4989951;28;20274;-72
2023/05/16 10:41:47;;;;;;;2.87;1.70;;;17.10;1.00;;;;;;4991009;28;20462;-74
2023/05/16 10:44:15;;;;;;;2.53;1.90;;;17.10;1.00;;;;;;4981905;28;20526;-73
2023/05/16 10:46:40;;;;;;;2.50;1.60;;;16.90;1.00;;;;;;4978861;28;20442;-73
2023/05/16 10:49:23;;;;;;;2.50;1.93;;;16.90;1.00;;;;;;4985271;28;20442;-73
2023/05/16 10:52:04;;;;;;;1.93;1.70;;;16.90;1.00;;;;;;4986425;28;20186;-73
2023/05/16 10:54:34;;;;;;;2.63;1.97;;;17.10;1.00;;;;;;4982923;28;20452;-73
2023/05/16 10:57:07;;;;;;;7.00;2.00;;;17.60;1.00;;;;;;4979031;28;21157;-74
2023/05/16 10:59:41;;;;;;;3.87;1.90;;;17.80;1.00;;;;;;4980809;28;20443;-73
2023/05/16 11:02:21;;;;;;;6.43;1.67;;;17.80;1.00;;;;;;4987620;28;20470;-74
2023/05/16 11:04:49;;;;;;;2.33;1.73;;;17.60;1.00;;;;;;4983572;28;20493;-73
2023/05/16 11:07:20;;;;;;;3.70;1.87;;;17.90;1.00;;;;;;4982769;28;20606;-73
2023/05/16 11:10:03;;;;;;;2.73;1.80;;;17.90;1.00;;;;;;4981435;28;20441;-75
2023/05/16 11:12:37;;;;;;;6.40;1.90;;;17.80;1.00;;;;;;4984885;28;20437;-74
2023/05/16 11:15:23;;;;;;;4.27;1.90;;;17.40;1.00;;;;;;4989920;28;20441;-73
2023/05/16 11:17:49;;;;;;;4.20;1.90;;;17.30;1.00;;;;;;4986707;28;20488;-75
2023/05/16 11:20:37;;;;;;;3.23;1.80;;;17.10;1.00;;;;;;4985428;28;20520;-74
2023/05/16 11:23:19;;;;;;;4.80;1.80;;;17.00;1.00;;;;;;4987938;28;20435;-74
2023/05/16 11:25:47;;;;;;;3.13;1.90;;;16.80;1.00;;;;;;4973521;28;20953;-73
2023/05/16 11:28:13;;;;;;;2.73;1.90;;;17.00;1.00;;;;;;4980779;28;20493;-73
2023/05/16 11:30:48;;;;;;;2.73;1.70;;;17.00;1.00;;;;;;4978062;28;20569;-74
2023/05/16 11:33:14;;;;;;;2.03;1.70;;;16.80;1.00;;;;;;4977768;28;21007;-73
2023/05/16 11:35:41;;;;;;;1.97;1.60;;;16.60;1.00;;;;;;4979618;28;20445;-73
2023/05/16 11:38:13;;;;;;;2.10;1.60;;;16.40;1.00;;;;;;4976212;28;20462;-75
2023/05/16 11:40:41;;;;;;;2.80;1.83;;;16.30;1.00;;;;;;4985578;28;20988;-73
2023/05/16 11:43:07;;;;;;;1.97;1.40;;;16.30;1.00;;;;;;4979058;28;20441;-74
2023/05/16 11:45:33;;;;;;;2.60;1.77;;;16.40;1.00;;;;;;4979854;28;20454;-73
2023/05/16 11:48:03;;;;;;;1.80;1.50;;;16.70;1.00;;;;;;4979083;28;20207;-73
2023/05/16 11:50:29;;;;;;;3.30;1.80;;;16.90;1.00;;;;;;4977213;28;20274;-73
2023/05/16 11:52:56;;;;;;;6.33;2.00;;;17.10;1.00;;;;;;4979928;28;20735;-73
2023/05/16 11:55:24;;;;;;;3.50;1.80;;;17.30;1.00;;;;;;4974473;28;20438;-73
2023/05/16 11:57:53;;;;;;;3.40;1.87;;;17.40;1.00;;;;;;4982984;28;20577;-73
2023/05/16 12:00:23;;;;;;;4.63;2.10;;;17.70;1.00;;;;;;4986955;28;21068;-73
2023/05/16 12:02:49;;;;;;;4.70;1.93;;;17.90;1.00;;;;;;4979266;28;20550;-73
2023/05/16 12:05:17;;;;;;;3.63;2.10;;;18.00;1.00;;;;;;4985492;28;20521;-73
2023/05/16 12:07:44;;;;;;;4.60;1.90;;;17.80;1.00;;;;;;4984521;28;20660;-73
2023/05/16 12:10:11;;;;;;;3.63;1.90;;;17.70;1.00;;;;;;4980097;28;20461;-74
2023/05/16 12:12:39;;;;;;;3.20;2.20;;;17.90;1.00;;;;;;4980141;28;20504;-73
2023/05/16 12:15:07;;;;;;;2.70;2.00;;;17.80;1.00;;;;;;4975927;28;20796;-73
2023/05/16 12:17:33;;;;;;;6.00;2.40;;;18.40;1.00;;;;;;4985654;28;20998;-73
2023/05/16 12:20:00;;;;;;;4.30;2.33;;;18.30;1.00;;;;;;4987764;28;20434;-73
2023/05/16 12:22:25;;;;;;;4.77;2.27;;;18.20;1.00;;;;;;4986083;28;20457;-73
2023/05/16 12:24:51;;;;;;;7.00;2.37;;;18.10;1.00;;;;;;4982697;28;20729;-74
2023/05/16 12:27:26;;;;;;;4.47;2.30;;;18.00;1.00;;;;;;4975131;28;20199;-73
2023/05/16 12:29:52;;;;;;;4.77;2.30;;;17.90;1.00;;;;;;4989577;28;20190;-74
2023/05/16 12:32:19;;;;;;;3.77;2.53;;;18.30;1.00;;;;;;4976861;28;20435;-74
2023/05/16 12:34:52;;;;;;;6.37;3.13;;;18.60;1.00;;;;;;4984119;28;20195;-74
2023/05/16 12:37:19;;;;;;;5.27;2.80;;;18.40;1.00;;;;;;4976705;28;20465;-74
2023/05/16 12:39:46;;;;;;;5.03;2.47;;;18.30;1.00;;;;;;4983329;28;20435;-75
2023/05/16 12:42:12;;;;;;;4.30;2.43;;;18.50;1.00;;;;;;4978971;28;20534;-75
2023/05/16 12:44:38;;;;;;;4.80;2.20;;;18.90;1.00;;;;;;4987203;28;20975;-75
2023/05/16 12:47:10;;;;;;;8.53;2.80;;;19.10;1.00;;;;;;4987136;28;20449;-75